LNI433 WIII-WIMM
Flight info
| Callsign | LNI433 |
|---|---|
| Flight time | 1h 48m |
| Altitude | 40000 |
| Route | GOMEL T10 AKPER |
| Aircraft | A333/H-SDE2E3FGHIJ2J4M1RWXYZ/LB1D1 |
Departure
| Time | 2026-04-26 05:09 |
|---|---|
| Airport | Soekarno-Hatta International Airport (WIII) |
Arrival
| Time | 2026-04-26 06:57 |
|---|---|
| Airport | Kualanamu International Airport (WIMM) |
| Time | Latitude | Longitude | Altitude | Speed | Heading |
|---|---|---|---|---|---|
| 2026-04-26 04:27 | -6.12129 | 106.65665 | 41 ft | 0 kts | 279° |
| 2026-04-26 04:57 | -6.12130 | 106.65671 | 41 ft | 4 kts | 280° |
| 2026-04-26 04:57 | -6.12136 | 106.65697 | 41 ft | 4 kts | 286° |
| 2026-04-26 04:57 | -6.12144 | 106.65723 | 40 ft | 4 kts | 296° |
| 2026-04-26 04:57 | -6.12158 | 106.65745 | 38 ft | 4 kts | 318° |
| 2026-04-26 04:58 | -6.12176 | 106.65755 | 39 ft | 1 kts | 359° |
| 2026-04-26 04:58 | -6.12180 | 106.65755 | 39 ft | 0 kts | 359° |
| 2026-04-26 05:01 | -6.12168 | 106.65755 | 41 ft | 4 kts | 359° |
| 2026-04-26 05:01 | -6.12127 | 106.65751 | 41 ft | 7 kts | 349° |
| 2026-04-26 05:02 | -6.12071 | 106.65732 | 41 ft | 10 kts | 339° |
| 2026-04-26 05:02 | -6.12000 | 106.65704 | 41 ft | 12 kts | 338° |
| 2026-04-26 05:02 | -6.11916 | 106.65671 | 41 ft | 14 kts | 338° |
| 2026-04-26 05:02 | -6.11822 | 106.65633 | 41 ft | 15 kts | 338° |
| 2026-04-26 05:03 | -6.11719 | 106.65592 | 41 ft | 17 kts | 338° |
| 2026-04-26 05:03 | -6.11643 | 106.65518 | 41 ft | 16 kts | 266° |
| 2026-04-26 05:03 | -6.11680 | 106.65406 | 41 ft | 18 kts | 248° |
| 2026-04-26 05:03 | -6.11728 | 106.65285 | 42 ft | 19 kts | 248° |
| 2026-04-26 05:04 | -6.11780 | 106.65156 | 42 ft | 21 kts | 248° |
| 2026-04-26 05:04 | -6.11837 | 106.65012 | 42 ft | 23 kts | 248° |
| 2026-04-26 05:04 | -6.11897 | 106.64861 | 42 ft | 24 kts | 248° |
| 2026-04-26 05:04 | -6.11961 | 106.64701 | 41 ft | 26 kts | 248° |
| 2026-04-26 05:05 | -6.11986 | 106.64638 | 42 ft | 26 kts | 248° |
| 2026-04-26 05:05 | -6.12026 | 106.64536 | 42 ft | 27 kts | 248° |
| 2026-04-26 05:05 | -6.12098 | 106.64357 | 42 ft | 28 kts | 248° |
| 2026-04-26 05:05 | -6.12173 | 106.64170 | 42 ft | 29 kts | 248° |
| 2026-04-26 05:06 | -6.12246 | 106.63987 | 42 ft | 20 kts | 249° |
| 2026-04-26 05:06 | -6.12239 | 106.63915 | 42 ft | 6 kts | 301° |
| 2026-04-26 05:06 | -6.12201 | 106.63887 | 43 ft | 7 kts | 340° |
| 2026-04-26 05:06 | -6.12149 | 106.63891 | 43 ft | 8 kts | 11° |
| 2026-04-26 05:07 | -6.12085 | 106.63913 | 42 ft | 11 kts | 40° |
| 2026-04-26 05:07 | -6.12062 | 106.63959 | 41 ft | 0 kts | 68° |
| 2026-04-26 05:08 | -6.12059 | 106.63966 | 41 ft | 9 kts | 68° |
| 2026-04-26 05:08 | -6.11946 | 106.64245 | 41 ft | 78 kts | 67° |
| 2026-04-26 05:08 | -6.11662 | 106.64962 | 44 ft | 140 kts | 68° |
| 2026-04-26 05:09 | -6.11236 | 106.66021 | 174 ft | 184 kts | 65° |
| 2026-04-26 05:09 | -6.10710 | 106.67266 | 809 ft | 196 kts | 65° |
| 2026-04-26 05:09 | -6.10184 | 106.68497 | 1912 ft | 188 kts | 63° |
| 2026-04-26 05:09 | -6.09378 | 106.69563 | 2668 ft | 200 kts | 41° |
| 2026-04-26 05:10 | -6.08096 | 106.70287 | 3068 ft | 228 kts | 25° |
| 2026-04-26 05:10 | -6.06588 | 106.70957 | 3572 ft | 244 kts | 26° |
| 2026-04-26 05:10 | -6.05025 | 106.71722 | 4163 ft | 252 kts | 27° |
| 2026-04-26 05:10 | -6.03312 | 106.72262 | 4742 ft | 265 kts | 9° |
| 2026-04-26 05:11 | -6.01466 | 106.72125 | 5444 ft | 275 kts | 343° |
| 2026-04-26 05:11 | -5.99828 | 106.71116 | 6317 ft | 281 kts | 319° |
| 2026-04-26 05:11 | -5.98439 | 106.69720 | 7146 ft | 284 kts | 315° |
| 2026-04-26 05:11 | -5.97091 | 106.68242 | 8018 ft | 288 kts | 314° |
| 2026-04-26 05:12 | -5.95735 | 106.66744 | 8907 ft | 291 kts | 314° |
| 2026-04-26 05:12 | -5.94371 | 106.65244 | 9780 ft | 296 kts | 314° |
| 2026-04-26 05:12 | -5.92957 | 106.63698 | 10424 ft | 307 kts | 314° |
| 2026-04-26 05:12 | -5.91452 | 106.62060 | 10753 ft | 329 kts | 314° |
| 2026-04-26 05:13 | -5.89846 | 106.60313 | 11091 ft | 348 kts | 314° |
| 2026-04-26 05:13 | -5.88175 | 106.58495 | 11661 ft | 358 kts | 314° |
| 2026-04-26 05:13 | -5.86490 | 106.56662 | 12320 ft | 364 kts | 314° |
| 2026-04-26 05:13 | -5.84758 | 106.54779 | 13036 ft | 369 kts | 314° |
| 2026-04-26 05:14 | -5.82996 | 106.52863 | 13736 ft | 374 kts | 314° |
| 2026-04-26 05:14 | -5.81215 | 106.50929 | 14340 ft | 379 kts | 314° |
| 2026-04-26 05:14 | -5.79412 | 106.48970 | 14973 ft | 383 kts | 314° |
| 2026-04-26 05:14 | -5.77617 | 106.47021 | 15605 ft | 387 kts | 314° |
| 2026-04-26 05:15 | -5.75775 | 106.45020 | 16237 ft | 391 kts | 314° |
| 2026-04-26 05:15 | -5.73917 | 106.43003 | 16865 ft | 395 kts | 314° |
| 2026-04-26 05:15 | -5.72035 | 106.40960 | 17484 ft | 399 kts | 314° |
| 2026-04-26 05:15 | -5.70161 | 106.38926 | 18089 ft | 403 kts | 314° |
| 2026-04-26 05:16 | -5.68246 | 106.36848 | 18599 ft | 407 kts | 314° |
| 2026-04-26 05:16 | -5.66316 | 106.34753 | 19119 ft | 410 kts | 314° |
| 2026-04-26 05:16 | -5.64369 | 106.32639 | 19662 ft | 412 kts | 314° |
| 2026-04-26 05:16 | -5.62409 | 106.30513 | 20164 ft | 415 kts | 314° |
| 2026-04-26 05:17 | -5.60457 | 106.28396 | 20659 ft | 419 kts | 314° |
| 2026-04-26 05:17 | -5.58467 | 106.26236 | 21140 ft | 422 kts | 314° |
| 2026-04-26 05:17 | -5.56457 | 106.24056 | 21640 ft | 425 kts | 314° |
| 2026-04-26 05:17 | -5.54433 | 106.21861 | 22106 ft | 428 kts | 314° |
| 2026-04-26 05:18 | -5.52422 | 106.19680 | 22586 ft | 431 kts | 314° |
| 2026-04-26 05:18 | -5.50375 | 106.17460 | 23062 ft | 435 kts | 314° |
| 2026-04-26 05:18 | -5.48309 | 106.15220 | 23506 ft | 438 kts | 314° |
| 2026-04-26 05:18 | -5.46228 | 106.12965 | 23892 ft | 440 kts | 314° |
| 2026-04-26 05:19 | -5.44143 | 106.10704 | 24303 ft | 442 kts | 314° |
| 2026-04-26 05:19 | -5.42040 | 106.08424 | 24708 ft | 444 kts | 314° |
| 2026-04-26 05:19 | -5.39961 | 106.06171 | 25099 ft | 447 kts | 314° |
| 2026-04-26 05:19 | -5.37836 | 106.03869 | 25504 ft | 449 kts | 314° |
| 2026-04-26 05:20 | -5.35706 | 106.01561 | 25910 ft | 451 kts | 314° |
| 2026-04-26 05:20 | -5.33558 | 105.99233 | 26302 ft | 453 kts | 314° |
| 2026-04-26 05:20 | -5.31432 | 105.96930 | 26669 ft | 456 kts | 314° |
| 2026-04-26 05:20 | -5.29268 | 105.94586 | 27046 ft | 459 kts | 314° |
| 2026-04-26 05:21 | -5.27091 | 105.92228 | 27457 ft | 461 kts | 313° |
| 2026-04-26 05:21 | -5.24903 | 105.89858 | 27858 ft | 463 kts | 314° |
| 2026-04-26 05:21 | -5.22704 | 105.87478 | 28230 ft | 465 kts | 313° |
| 2026-04-26 05:21 | -5.20525 | 105.85121 | 28644 ft | 467 kts | 314° |
| 2026-04-26 05:22 | -5.18168 | 105.82870 | 29011 ft | 468 kts | 321° |
| 2026-04-26 05:22 | -5.15588 | 105.80840 | 29358 ft | 471 kts | 324° |
| 2026-04-26 05:22 | -5.12954 | 105.78913 | 29718 ft | 473 kts | 325° |
| 2026-04-26 05:22 | -5.10248 | 105.77003 | 30014 ft | 476 kts | 326° |
| 2026-04-26 05:23 | -5.07514 | 105.75098 | 30304 ft | 479 kts | 326° |
| 2026-04-26 05:23 | -5.04762 | 105.73179 | 30628 ft | 480 kts | 326° |
| 2026-04-26 05:23 | -5.02017 | 105.71255 | 30922 ft | 482 kts | 326° |
| 2026-04-26 05:23 | -4.99294 | 105.69336 | 31198 ft | 485 kts | 326° |
| 2026-04-26 05:24 | -4.96530 | 105.67378 | 31511 ft | 486 kts | 326° |
| 2026-04-26 05:24 | -4.93757 | 105.65409 | 31817 ft | 488 kts | 325° |
| 2026-04-26 05:24 | -4.90989 | 105.63441 | 32171 ft | 488 kts | 325° |
| 2026-04-26 05:24 | -4.88223 | 105.61473 | 32648 ft | 485 kts | 325° |
| 2026-04-26 05:25 | -4.85466 | 105.59512 | 33125 ft | 483 kts | 325° |
| 2026-04-26 05:25 | -4.82755 | 105.57584 | 33574 ft | 481 kts | 325° |
| 2026-04-26 05:25 | -4.80025 | 105.55643 | 34004 ft | 479 kts | 325° |
| 2026-04-26 05:25 | -4.77307 | 105.53711 | 34377 ft | 478 kts | 326° |
| 2026-04-26 05:26 | -4.74590 | 105.51782 | 34739 ft | 477 kts | 325° |
| 2026-04-26 05:26 | -4.71878 | 105.49856 | 35094 ft | 476 kts | 325° |
| 2026-04-26 05:26 | -4.69176 | 105.47937 | 35454 ft | 475 kts | 325° |
| 2026-04-26 05:26 | -4.66475 | 105.46019 | 35816 ft | 474 kts | 325° |
| 2026-04-26 05:27 | -4.63815 | 105.44130 | 36172 ft | 473 kts | 325° |
| 2026-04-26 05:27 | -4.61125 | 105.42220 | 36499 ft | 472 kts | 325° |
| 2026-04-26 05:27 | -4.58444 | 105.40316 | 36846 ft | 471 kts | 325° |
| 2026-04-26 05:27 | -4.55766 | 105.38416 | 37180 ft | 470 kts | 325° |
| 2026-04-26 05:28 | -4.53095 | 105.36519 | 37528 ft | 469 kts | 325° |
| 2026-04-26 05:28 | -4.50463 | 105.34651 | 37871 ft | 468 kts | 325° |
| 2026-04-26 05:28 | -4.47799 | 105.32760 | 38192 ft | 467 kts | 325° |
| 2026-04-26 05:28 | -4.45148 | 105.30879 | 38524 ft | 466 kts | 325° |
| 2026-04-26 05:29 | -4.42497 | 105.28998 | 38776 ft | 465 kts | 325° |
| 2026-04-26 05:29 | -4.39847 | 105.27118 | 39007 ft | 465 kts | 325° |
| 2026-04-26 05:29 | -4.37202 | 105.25241 | 39235 ft | 465 kts | 325° |
| 2026-04-26 05:29 | -4.34592 | 105.23389 | 39463 ft | 465 kts | 325° |
| 2026-04-26 05:30 | -4.31947 | 105.21513 | 39681 ft | 464 kts | 325° |
| 2026-04-26 05:30 | -4.29303 | 105.19637 | 39921 ft | 464 kts | 325° |
| 2026-04-26 05:30 | -4.24032 | 105.15900 | 40008 ft | 468 kts | 325° |
| 2026-04-26 05:31 | -4.18704 | 105.12123 | 40009 ft | 468 kts | 325° |
| 2026-04-26 05:31 | -4.13372 | 105.08342 | 40010 ft | 468 kts | 325° |
| 2026-04-26 05:32 | -4.08301 | 105.04319 | 40006 ft | 468 kts | 319° |
| 2026-04-26 05:32 | -4.03480 | 104.99908 | 40010 ft | 469 kts | 317° |
| 2026-04-26 05:33 | -3.98716 | 104.95434 | 40009 ft | 468 kts | 317° |
| 2026-04-26 05:33 | -3.93994 | 104.90992 | 40009 ft | 468 kts | 317° |
| 2026-04-26 05:34 | -3.89224 | 104.86520 | 40009 ft | 469 kts | 317° |
| 2026-04-26 05:34 | -3.84444 | 104.82047 | 40008 ft | 469 kts | 317° |
| 2026-04-26 05:35 | -3.79697 | 104.77608 | 40006 ft | 469 kts | 317° |
| 2026-04-26 05:35 | -3.74935 | 104.73155 | 40005 ft | 469 kts | 317° |
| 2026-04-26 05:36 | -3.70152 | 104.68683 | 40006 ft | 469 kts | 317° |
| 2026-04-26 05:36 | -3.65398 | 104.64239 | 40009 ft | 469 kts | 317° |
| 2026-04-26 05:37 | -3.60625 | 104.59777 | 40009 ft | 469 kts | 317° |
| 2026-04-26 05:37 | -3.55850 | 104.55313 | 40008 ft | 469 kts | 317° |
| 2026-04-26 05:38 | -3.51089 | 104.50864 | 40005 ft | 469 kts | 317° |
| 2026-04-26 05:38 | -3.46313 | 104.46402 | 40008 ft | 469 kts | 317° |
| 2026-04-26 05:39 | -3.41561 | 104.41963 | 40009 ft | 469 kts | 317° |
| 2026-04-26 05:39 | -3.36778 | 104.37496 | 40008 ft | 469 kts | 317° |
| 2026-04-26 05:40 | -3.32798 | 104.33778 | 40008 ft | 469 kts | 317° |
| 2026-04-26 05:40 | -3.28018 | 104.29315 | 40009 ft | 469 kts | 317° |
| 2026-04-26 05:41 | -3.23262 | 104.24874 | 40012 ft | 469 kts | 317° |
| 2026-04-26 05:41 | -3.18473 | 104.20403 | 40011 ft | 469 kts | 317° |
| 2026-04-26 05:42 | -3.13716 | 104.15962 | 40011 ft | 470 kts | 317° |
| 2026-04-26 05:42 | -3.08924 | 104.11490 | 40014 ft | 470 kts | 317° |
| 2026-04-26 05:43 | -3.04166 | 104.07050 | 40014 ft | 470 kts | 317° |
| 2026-04-26 05:43 | -2.99378 | 104.02582 | 40013 ft | 470 kts | 317° |
| 2026-04-26 05:44 | -2.94586 | 103.98112 | 40014 ft | 470 kts | 317° |
| 2026-04-26 05:44 | -2.89820 | 103.93666 | 40013 ft | 471 kts | 317° |
| 2026-04-26 05:45 | -2.85016 | 103.89185 | 40014 ft | 471 kts | 317° |
| 2026-04-26 05:45 | -2.80209 | 103.84701 | 40017 ft | 471 kts | 317° |
| 2026-04-26 05:46 | -2.75439 | 103.80253 | 40014 ft | 469 kts | 317° |
| 2026-04-26 05:46 | -2.70658 | 103.75795 | 40016 ft | 469 kts | 317° |
| 2026-04-26 05:47 | -2.65906 | 103.71365 | 40013 ft | 469 kts | 317° |
| 2026-04-26 05:47 | -2.61158 | 103.66938 | 40012 ft | 469 kts | 317° |
| 2026-04-26 05:48 | -2.56379 | 103.62485 | 40017 ft | 470 kts | 317° |
| 2026-04-26 05:48 | -2.51570 | 103.58003 | 40017 ft | 471 kts | 317° |
| 2026-04-26 05:49 | -2.44392 | 103.51314 | 40016 ft | 471 kts | 317° |
| 2026-04-26 05:50 | -2.39593 | 103.46842 | 40017 ft | 470 kts | 317° |
| 2026-04-26 05:50 | -2.34833 | 103.42407 | 40020 ft | 469 kts | 317° |
| 2026-04-26 05:51 | -2.30048 | 103.37945 | 40020 ft | 469 kts | 317° |
| 2026-04-26 05:51 | -2.25300 | 103.33508 | 40019 ft | 469 kts | 317° |
| 2026-04-26 05:52 | -2.20518 | 103.29039 | 40016 ft | 470 kts | 317° |
| 2026-04-26 05:52 | -2.15722 | 103.24559 | 40017 ft | 471 kts | 317° |
| 2026-04-26 05:53 | -2.10947 | 103.20099 | 40019 ft | 472 kts | 317° |
| 2026-04-26 05:53 | -2.06138 | 103.15608 | 40016 ft | 472 kts | 317° |
| 2026-04-26 05:54 | -2.01363 | 103.11149 | 40016 ft | 471 kts | 317° |
| 2026-04-26 05:54 | -1.96576 | 103.06679 | 40015 ft | 469 kts | 317° |
| 2026-04-26 05:55 | -1.91827 | 103.02246 | 40019 ft | 469 kts | 317° |
| 2026-04-26 05:55 | -1.87044 | 102.97781 | 40019 ft | 469 kts | 317° |
| 2026-04-26 05:56 | -1.82293 | 102.93345 | 40020 ft | 470 kts | 317° |
| 2026-04-26 05:56 | -1.77501 | 102.88873 | 40019 ft | 470 kts | 317° |
| 2026-04-26 05:57 | -1.72715 | 102.84406 | 40016 ft | 470 kts | 317° |
| 2026-04-26 05:57 | -1.67953 | 102.79962 | 40017 ft | 470 kts | 317° |
| 2026-04-26 05:58 | -1.63165 | 102.75493 | 40018 ft | 470 kts | 317° |
| 2026-04-26 05:58 | -1.58382 | 102.71030 | 40016 ft | 469 kts | 317° |
| 2026-04-26 05:59 | -1.53602 | 102.66570 | 40016 ft | 469 kts | 317° |
| 2026-04-26 05:59 | -1.48853 | 102.62136 | 40015 ft | 469 kts | 318° |
| 2026-04-26 06:00 | -1.44066 | 102.57665 | 40017 ft | 471 kts | 318° |
| 2026-04-26 06:00 | -1.39266 | 102.53182 | 40019 ft | 472 kts | 318° |
| 2026-04-26 06:01 | -1.34487 | 102.48719 | 40016 ft | 472 kts | 318° |
| 2026-04-26 06:01 | -1.29687 | 102.44236 | 40011 ft | 472 kts | 318° |
| 2026-04-26 06:02 | -1.24909 | 102.39775 | 40011 ft | 471 kts | 317° |
| 2026-04-26 06:02 | -1.20113 | 102.35297 | 40011 ft | 471 kts | 317° |
| 2026-04-26 06:03 | -1.15324 | 102.30825 | 40008 ft | 470 kts | 317° |
| 2026-04-26 06:03 | -1.10566 | 102.26383 | 40008 ft | 471 kts | 317° |
| 2026-04-26 06:04 | -1.05762 | 102.21898 | 40009 ft | 472 kts | 317° |
| 2026-04-26 06:04 | -1.00953 | 102.17408 | 40005 ft | 473 kts | 317° |
| 2026-04-26 06:05 | -0.96167 | 102.12940 | 40006 ft | 473 kts | 317° |
| 2026-04-26 06:05 | -0.91347 | 102.08440 | 40006 ft | 473 kts | 317° |
| 2026-04-26 06:06 | -0.86558 | 102.03970 | 40006 ft | 473 kts | 317° |
| 2026-04-26 06:06 | -0.81744 | 101.99477 | 40003 ft | 472 kts | 317° |
| 2026-04-26 06:07 | -0.76935 | 101.94987 | 40003 ft | 472 kts | 317° |
| 2026-04-26 06:07 | -0.72160 | 101.90531 | 40002 ft | 471 kts | 318° |
| 2026-04-26 06:08 | -0.67363 | 101.86053 | 40000 ft | 470 kts | 318° |
| 2026-04-26 06:08 | -0.62609 | 101.81616 | 40000 ft | 470 kts | 318° |
| 2026-04-26 06:09 | -0.57824 | 101.77150 | 39997 ft | 470 kts | 318° |
| 2026-04-26 06:09 | -0.53063 | 101.72707 | 39995 ft | 470 kts | 318° |
| 2026-04-26 06:10 | -0.48301 | 101.68262 | 39996 ft | 470 kts | 318° |
| 2026-04-26 06:10 | -0.43503 | 101.63786 | 39994 ft | 471 kts | 318° |
| 2026-04-26 06:11 | -0.38727 | 101.59328 | 39994 ft | 472 kts | 318° |
| 2026-04-26 06:11 | -0.33927 | 101.54849 | 39994 ft | 472 kts | 317° |
| 2026-04-26 06:12 | -0.29115 | 101.50358 | 39993 ft | 473 kts | 317° |
| 2026-04-26 06:12 | -0.24295 | 101.45861 | 39993 ft | 473 kts | 317° |
| 2026-04-26 06:13 | -0.19511 | 101.41396 | 39991 ft | 473 kts | 317° |
| 2026-04-26 06:13 | -0.14720 | 101.36925 | 39990 ft | 473 kts | 317° |
| 2026-04-26 06:14 | -0.09903 | 101.32430 | 39989 ft | 473 kts | 317° |
| 2026-04-26 06:14 | -0.05087 | 101.27936 | 39991 ft | 473 kts | 317° |
| 2026-04-26 06:15 | -0.00282 | 101.23452 | 39992 ft | 474 kts | 317° |
| 2026-04-26 06:15 | 0.04541 | 101.18952 | 39988 ft | 473 kts | 318° |
| 2026-04-26 06:16 | 0.09318 | 101.14493 | 39989 ft | 473 kts | 318° |
| 2026-04-26 06:16 | 0.14129 | 101.10004 | 39953 ft | 473 kts | 318° |
| 2026-04-26 06:16 | 0.16535 | 101.07760 | 39852 ft | 473 kts | 317° |
| 2026-04-26 06:17 | 0.18940 | 101.05515 | 39846 ft | 473 kts | 318° |
| 2026-04-26 06:17 | 0.23754 | 101.01023 | 39848 ft | 473 kts | 317° |
| 2026-04-26 06:18 | 0.28539 | 100.96557 | 39847 ft | 473 kts | 318° |
| 2026-04-26 06:18 | 0.33357 | 100.92061 | 39848 ft | 473 kts | 317° |
| 2026-04-26 06:19 | 0.38154 | 100.87584 | 39847 ft | 474 kts | 317° |
| 2026-04-26 06:19 | 0.42977 | 100.83083 | 39856 ft | 473 kts | 317° |
| 2026-04-26 06:20 | 0.47771 | 100.78609 | 39852 ft | 473 kts | 317° |
| 2026-04-26 06:20 | 0.52605 | 100.74099 | 39851 ft | 473 kts | 318° |
| 2026-04-26 06:21 | 0.57393 | 100.69631 | 39860 ft | 473 kts | 318° |
| 2026-04-26 06:21 | 0.62188 | 100.65156 | 39851 ft | 473 kts | 318° |
| 2026-04-26 06:22 | 0.67006 | 100.60659 | 39850 ft | 473 kts | 317° |
| 2026-04-26 06:22 | 0.71821 | 100.56164 | 39861 ft | 473 kts | 317° |
| 2026-04-26 06:23 | 0.76633 | 100.51673 | 39857 ft | 473 kts | 318° |
| 2026-04-26 06:23 | 0.81448 | 100.47179 | 39856 ft | 473 kts | 317° |
| 2026-04-26 06:24 | 0.86234 | 100.42711 | 39858 ft | 473 kts | 318° |
| 2026-04-26 06:24 | 0.91063 | 100.38203 | 39857 ft | 474 kts | 317° |
| 2026-04-26 06:25 | 0.95859 | 100.33726 | 39857 ft | 473 kts | 317° |
| 2026-04-26 06:25 | 1.00653 | 100.29251 | 39857 ft | 473 kts | 317° |
| 2026-04-26 06:26 | 1.05469 | 100.24755 | 39862 ft | 473 kts | 317° |
| 2026-04-26 06:26 | 1.10289 | 100.20255 | 39860 ft | 473 kts | 318° |
| 2026-04-26 06:27 | 1.15079 | 100.15782 | 39863 ft | 475 kts | 318° |
| 2026-04-26 06:27 | 1.19906 | 100.11274 | 39870 ft | 474 kts | 318° |
| 2026-04-26 06:28 | 1.23914 | 100.07532 | 39863 ft | 474 kts | 317° |
| 2026-04-26 06:28 | 1.29523 | 100.02295 | 39863 ft | 473 kts | 317° |
| 2026-04-26 06:29 | 1.33530 | 99.98552 | 39863 ft | 474 kts | 318° |
| 2026-04-26 06:29 | 1.38355 | 99.94046 | 39866 ft | 474 kts | 318° |
| 2026-04-26 06:30 | 1.43159 | 99.89560 | 39867 ft | 475 kts | 317° |
| 2026-04-26 06:30 | 1.47985 | 99.85052 | 39867 ft | 474 kts | 317° |
| 2026-04-26 06:31 | 1.52791 | 99.80564 | 39819 ft | 472 kts | 317° |
| 2026-04-26 06:31 | 1.55178 | 99.78334 | 39591 ft | 467 kts | 317° |
| 2026-04-26 06:31 | 1.57546 | 99.76121 | 39351 ft | 464 kts | 317° |
| 2026-04-26 06:31 | 1.59921 | 99.73903 | 39116 ft | 465 kts | 317° |
| 2026-04-26 06:32 | 1.62286 | 99.71693 | 38889 ft | 466 kts | 317° |
| 2026-04-26 06:32 | 1.64658 | 99.69477 | 38660 ft | 467 kts | 317° |
| 2026-04-26 06:32 | 1.67040 | 99.67251 | 38421 ft | 468 kts | 317° |
| 2026-04-26 06:32 | 1.69390 | 99.65055 | 38169 ft | 469 kts | 317° |
| 2026-04-26 06:33 | 1.71781 | 99.62821 | 37914 ft | 470 kts | 317° |
| 2026-04-26 06:33 | 1.74174 | 99.60586 | 37645 ft | 471 kts | 317° |
| 2026-04-26 06:33 | 1.76608 | 99.58386 | 37386 ft | 472 kts | 322° |
| 2026-04-26 06:33 | 1.79323 | 99.56560 | 36882 ft | 469 kts | 331° |
| 2026-04-26 06:34 | 1.82175 | 99.55033 | 36312 ft | 470 kts | 333° |
| 2026-04-26 06:34 | 1.85087 | 99.53544 | 35776 ft | 470 kts | 334° |
| 2026-04-26 06:34 | 1.88006 | 99.52056 | 35182 ft | 471 kts | 334° |
| 2026-04-26 06:34 | 1.90926 | 99.50562 | 34550 ft | 473 kts | 334° |
| 2026-04-26 06:35 | 1.93868 | 99.49053 | 33826 ft | 477 kts | 334° |
| 2026-04-26 06:35 | 1.96834 | 99.47527 | 32999 ft | 481 kts | 334° |
| 2026-04-26 06:35 | 1.99825 | 99.45987 | 32203 ft | 484 kts | 334° |
| 2026-04-26 06:35 | 2.02832 | 99.44437 | 31403 ft | 486 kts | 334° |
| 2026-04-26 06:36 | 2.05859 | 99.42877 | 30614 ft | 489 kts | 334° |
| 2026-04-26 06:36 | 2.08841 | 99.41340 | 30054 ft | 486 kts | 335° |
| 2026-04-26 06:36 | 2.11850 | 99.39787 | 29379 ft | 483 kts | 335° |
| 2026-04-26 06:36 | 2.14830 | 99.38250 | 28793 ft | 479 kts | 335° |
| 2026-04-26 06:37 | 2.17779 | 99.36727 | 28189 ft | 474 kts | 335° |
| 2026-04-26 06:37 | 2.20697 | 99.35222 | 27601 ft | 469 kts | 335° |
| 2026-04-26 06:37 | 2.23556 | 99.33748 | 27018 ft | 465 kts | 335° |
| 2026-04-26 06:37 | 2.26421 | 99.32270 | 26415 ft | 461 kts | 335° |
| 2026-04-26 06:38 | 2.29265 | 99.30802 | 25823 ft | 458 kts | 335° |
| 2026-04-26 06:38 | 2.32101 | 99.29339 | 25232 ft | 455 kts | 335° |
| 2026-04-26 06:38 | 2.34910 | 99.27890 | 24642 ft | 452 kts | 335° |
| 2026-04-26 06:38 | 2.37670 | 99.26466 | 24050 ft | 449 kts | 335° |
| 2026-04-26 06:39 | 2.40445 | 99.25035 | 23456 ft | 447 kts | 335° |
| 2026-04-26 06:39 | 2.43242 | 99.23688 | 22788 ft | 442 kts | 341° |
| 2026-04-26 06:39 | 2.46144 | 99.22864 | 22248 ft | 433 kts | 350° |
| 2026-04-26 06:39 | 2.49066 | 99.22262 | 21756 ft | 425 kts | 352° |
| 2026-04-26 06:40 | 2.51946 | 99.21704 | 21282 ft | 418 kts | 352° |
| 2026-04-26 06:40 | 2.54782 | 99.21157 | 20796 ft | 412 kts | 352° |
| 2026-04-26 06:40 | 2.57587 | 99.20613 | 20317 ft | 407 kts | 352° |
| 2026-04-26 06:40 | 2.60358 | 99.20072 | 19851 ft | 403 kts | 352° |
| 2026-04-26 06:41 | 2.63109 | 99.19535 | 19387 ft | 401 kts | 352° |
| 2026-04-26 06:41 | 2.65816 | 99.19004 | 18929 ft | 400 kts | 351° |
| 2026-04-26 06:41 | 2.68549 | 99.18467 | 18471 ft | 398 kts | 351° |
| 2026-04-26 06:41 | 2.71264 | 99.17934 | 17985 ft | 396 kts | 351° |
| 2026-04-26 06:42 | 2.73965 | 99.17403 | 17492 ft | 393 kts | 351° |
| 2026-04-26 06:42 | 2.76613 | 99.16882 | 17044 ft | 390 kts | 351° |
| 2026-04-26 06:42 | 2.79270 | 99.16359 | 16594 ft | 387 kts | 351° |
| 2026-04-26 06:42 | 2.81914 | 99.15839 | 16144 ft | 384 kts | 351° |
| 2026-04-26 06:43 | 2.84534 | 99.15323 | 15707 ft | 382 kts | 351° |
| 2026-04-26 06:43 | 2.87141 | 99.14810 | 15247 ft | 379 kts | 351° |
| 2026-04-26 06:43 | 2.89686 | 99.14310 | 14822 ft | 376 kts | 351° |
| 2026-04-26 06:43 | 2.92256 | 99.13804 | 14391 ft | 374 kts | 351° |
| 2026-04-26 06:44 | 2.94804 | 99.13302 | 13963 ft | 371 kts | 351° |
| 2026-04-26 06:44 | 2.97279 | 99.12558 | 13495 ft | 372 kts | 337° |
| 2026-04-26 06:44 | 2.99400 | 99.11132 | 13012 ft | 373 kts | 320° |
| 2026-04-26 06:44 | 3.01273 | 99.09350 | 12576 ft | 370 kts | 317° |
| 2026-04-26 06:45 | 3.03082 | 99.07528 | 12159 ft | 367 kts | 316° |
| 2026-04-26 06:45 | 3.04855 | 99.05736 | 11902 ft | 355 kts | 316° |
| 2026-04-26 06:45 | 3.06576 | 99.04005 | 11568 ft | 346 kts | 316° |
| 2026-04-26 06:45 | 3.08242 | 99.02337 | 11271 ft | 337 kts | 316° |
| 2026-04-26 06:46 | 3.09868 | 99.00712 | 10935 ft | 322 kts | 316° |
| 2026-04-26 06:46 | 3.11421 | 98.99162 | 10572 ft | 307 kts | 316° |
| 2026-04-26 06:46 | 3.12934 | 98.97655 | 10217 ft | 306 kts | 316° |
| 2026-04-26 06:46 | 3.14449 | 98.96148 | 9722 ft | 305 kts | 316° |
| 2026-04-26 06:47 | 3.15952 | 98.94653 | 9262 ft | 303 kts | 316° |
| 2026-04-26 06:47 | 3.17425 | 98.93187 | 8916 ft | 303 kts | 316° |
| 2026-04-26 06:47 | 3.18917 | 98.91702 | 8568 ft | 301 kts | 316° |
| 2026-04-26 06:47 | 3.20404 | 98.90221 | 8214 ft | 300 kts | 316° |
| 2026-04-26 06:48 | 3.21882 | 98.88750 | 7875 ft | 299 kts | 316° |
| 2026-04-26 06:48 | 3.23333 | 98.87305 | 7533 ft | 297 kts | 316° |
| 2026-04-26 06:48 | 3.24793 | 98.85851 | 7177 ft | 296 kts | 316° |
| 2026-04-26 06:48 | 3.26256 | 98.84395 | 6838 ft | 294 kts | 315° |
| 2026-04-26 06:49 | 3.27707 | 98.82950 | 6502 ft | 293 kts | 316° |
| 2026-04-26 06:49 | 3.29158 | 98.81505 | 6167 ft | 294 kts | 316° |
| 2026-04-26 06:49 | 3.30611 | 98.80062 | 5808 ft | 292 kts | 316° |
| 2026-04-26 06:49 | 3.32064 | 98.78656 | 5446 ft | 289 kts | 316° |
| 2026-04-26 06:50 | 3.33498 | 98.77285 | 5106 ft | 288 kts | 316° |
| 2026-04-26 06:50 | 3.34946 | 98.75904 | 4784 ft | 287 kts | 316° |
| 2026-04-26 06:50 | 3.36389 | 98.74528 | 4434 ft | 285 kts | 316° |
| 2026-04-26 06:50 | 3.37821 | 98.73161 | 4114 ft | 283 kts | 316° |
| 2026-04-26 06:51 | 3.39245 | 98.71801 | 3786 ft | 282 kts | 316° |
| 2026-04-26 06:51 | 3.42193 | 98.69270 | 3130 ft | 278 kts | 333° |
| 2026-04-26 06:51 | 3.44041 | 98.68823 | 2798 ft | 273 kts | 4° |
| 2026-04-26 06:52 | 3.45816 | 98.69353 | 2567 ft | 264 kts | 32° |
| 2026-04-26 06:52 | 3.47239 | 98.70477 | 2508 ft | 259 kts | 46° |
| 2026-04-26 06:52 | 3.48478 | 98.71760 | 2504 ft | 250 kts | 48° |
| 2026-04-26 06:52 | 3.49656 | 98.72963 | 2478 ft | 232 kts | 47° |
| 2026-04-26 06:53 | 3.50751 | 98.74060 | 2396 ft | 216 kts | 48° |
| 2026-04-26 06:53 | 3.51791 | 98.75095 | 2156 ft | 211 kts | 47° |
| 2026-04-26 06:53 | 3.52822 | 98.76117 | 2105 ft | 200 kts | 49° |
| 2026-04-26 06:53 | 3.53777 | 98.77066 | 2059 ft | 191 kts | 49° |
| 2026-04-26 06:54 | 3.54696 | 98.77982 | 2008 ft | 181 kts | 49° |
| 2026-04-26 06:54 | 3.55571 | 98.78858 | 1917 ft | 175 kts | 49° |
| 2026-04-26 06:54 | 3.56421 | 98.79711 | 1697 ft | 169 kts | 49° |
| 2026-04-26 06:54 | 3.57220 | 98.80509 | 1458 ft | 159 kts | 47° |
| 2026-04-26 06:55 | 3.57980 | 98.81266 | 1278 ft | 149 kts | 46° |
| 2026-04-26 06:55 | 3.58694 | 98.81979 | 1080 ft | 140 kts | 47° |
| 2026-04-26 06:55 | 3.59370 | 98.82653 | 905 ft | 135 kts | 49° |
| 2026-04-26 06:55 | 3.60021 | 98.83305 | 769 ft | 134 kts | 46° |
| 2026-04-26 06:56 | 3.60678 | 98.83960 | 612 ft | 129 kts | 46° |
| 2026-04-26 06:56 | 3.61300 | 98.84580 | 446 ft | 125 kts | 47° |
| 2026-04-26 06:56 | 3.61923 | 98.85208 | 255 ft | 129 kts | 44° |
| 2026-04-26 06:56 | 3.62550 | 98.85829 | 90 ft | 125 kts | 44° |
| 2026-04-26 06:57 | 3.63141 | 98.86417 | 41 ft | 108 kts | 45° |
| 2026-04-26 06:57 | 3.63539 | 98.86814 | 40 ft | 52 kts | 44° |
| 2026-04-26 06:57 | 3.63774 | 98.87048 | 41 ft | 45 kts | 45° |
| 2026-04-26 06:57 | 3.63984 | 98.87258 | 40 ft | 39 kts | 45° |
| 2026-04-26 06:58 | 3.64103 | 98.87475 | 39 ft | 27 kts | 74° |
| 2026-04-26 06:58 | 3.64147 | 98.87631 | 41 ft | 22 kts | 73° |
| 2026-04-26 06:58 | 3.64224 | 98.87749 | 42 ft | 18 kts | 44° |
| 2026-04-26 06:58 | 3.64309 | 98.87834 | 43 ft | 17 kts | 45° |
| 2026-04-26 06:59 | 3.64373 | 98.87897 | 43 ft | 13 kts | 45° |
| 2026-04-26 06:59 | 3.64407 | 98.87969 | 43 ft | 10 kts | 122° |
| 2026-04-26 06:59 | 3.64368 | 98.88032 | 44 ft | 12 kts | 124° |
| 2026-04-26 06:59 | 3.64310 | 98.88097 | 44 ft | 14 kts | 134° |
| 2026-04-26 07:00 | 3.64239 | 98.88168 | 44 ft | 15 kts | 135° |
| 2026-04-26 07:00 | 3.64154 | 98.88188 | 44 ft | 14 kts | 213° |
| 2026-04-26 07:00 | 3.64078 | 98.88116 | 44 ft | 16 kts | 225° |
| 2026-04-26 07:00 | 3.63998 | 98.88036 | 44 ft | 17 kts | 225° |
| 2026-04-26 07:01 | 3.63927 | 98.87970 | 44 ft | 10 kts | 205° |
| 2026-04-26 07:01 | 3.63902 | 98.87967 | 44 ft | 3 kts | 184° |
| 2026-04-26 07:01 | 3.63878 | 98.87974 | 44 ft | 4 kts | 156° |
| 2026-04-26 07:01 | 3.63861 | 98.87982 | 44 ft | 1 kts | 163° |
| 2026-04-26 07:02 | 3.63851 | 98.87980 | 44 ft | 2 kts | 192° |
| 2026-04-26 07:02 | 3.63844 | 98.87973 | 44 ft | 2 kts | 224° |
| 2026-04-26 07:02 | 3.63842 | 98.87952 | 44 ft | 3 kts | 266° |
| 2026-04-26 07:02 | 3.63834 | 98.87937 | 44 ft | 1 kts | 237° |
| 2026-04-26 07:03 | 3.63825 | 98.87925 | 44 ft | 4 kts | 232° |
| 2026-04-26 07:03 | 3.63814 | 98.87912 | 44 ft | 1 kts | 227° |
| 2026-04-26 07:03 | 3.63809 | 98.87907 | 44 ft | 1 kts | 227° |
| 2026-04-26 07:06 | 3.63818 | 98.87916 | 43 ft | 0 kts | 225° |
| 2026-04-26 07:06 | 3.63004 | 98.86279 | 40 ft | 0 kts | 44° |
| 2026-04-26 07:07 | 3.63819 | 98.87916 | 44 ft | 0 kts | 225° |